createdAt,value
2016-12-09T00:00:11.090Z,924.44
2016-12-09T00:00:39.211Z,924.41
2016-12-09T00:01:07.095Z,924.43
2016-12-09T00:01:34.981Z,924.42
2016-12-09T00:02:02.893Z,924.44
2016-12-09T00:02:30.773Z,924.42
2016-12-09T00:02:58.896Z,924.43
2016-12-09T00:03:27.069Z,924.46
2016-12-09T00:03:54.885Z,924.43
2016-12-09T00:04:22.990Z,924.43
2016-12-09T00:04:51.156Z,924.46
2016-12-09T00:05:19.299Z,924.44
2016-12-09T00:05:47.308Z,924.45
2016-12-09T00:06:15.523Z,924.49
2016-12-09T00:06:43.975Z,924.44
2016-12-09T00:07:11.739Z,924.45
2016-12-09T00:07:39.608Z,924.47
2016-12-09T00:08:07.394Z,924.49
2016-12-09T00:08:35.463Z,924.46
2016-12-09T00:09:03.272Z,924.49
2016-12-09T00:09:31.053Z,924.49
2016-12-09T00:09:59.186Z,924.52
2016-12-09T00:10:27.021Z,924.49
2016-12-09T00:10:54.833Z,924.46
2016-12-09T00:11:23.200Z,924.48
2016-12-09T00:11:50.929Z,924.46
2016-12-09T00:12:18.772Z,924.46
2016-12-09T00:12:46.550Z,924.47
2016-12-09T00:13:14.776Z,924.47
2016-12-09T00:13:42.579Z,924.5
2016-12-09T00:14:10.832Z,924.45
2016-12-09T00:14:38.557Z,924.48
2016-12-09T00:15:06.990Z,924.48
2016-12-09T00:15:34.793Z,924.49
2016-12-09T00:16:03.060Z,924.52
2016-12-09T00:16:30.831Z,924.51
2016-12-09T00:16:59.265Z,924.51
2016-12-09T00:17:27.149Z,924.57
2016-12-09T00:17:55.291Z,924.56
2016-12-09T00:18:23.389Z,924.56
2016-12-09T00:18:51.455Z,924.57
2016-12-09T00:19:19.657Z,924.59
2016-12-09T00:19:47.489Z,924.62
2016-12-09T00:20:15.350Z,924.63
2016-12-09T00:20:43.864Z,924.62
2016-12-09T00:21:11.851Z,924.66
2016-12-09T00:21:39.718Z,924.65
2016-12-09T00:22:07.532Z,924.6
2016-12-09T00:22:35.375Z,924.61
2016-12-09T00:23:03.234Z,924.64
2016-12-09T00:23:31.022Z,924.66
2016-12-09T00:23:58.868Z,924.67
2016-12-09T00:24:26.628Z,924.64
2016-12-09T00:24:54.515Z,924.68
2016-12-09T00:25:22.309Z,924.63
2016-12-09T00:25:50.133Z,924.65
2016-12-09T00:26:17.964Z,924.67
2016-12-09T00:26:45.863Z,924.71
2016-12-09T00:27:13.961Z,924.74
2016-12-09T00:27:41.786Z,924.78
2016-12-09T00:28:09.592Z,924.79
2016-12-09T00:28:38.033Z,924.81
2016-12-09T00:29:05.943Z,924.8
2016-12-09T00:29:33.761Z,924.83
2016-12-09T00:30:01.940Z,924.78
2016-12-09T00:30:30.138Z,924.76
2016-12-09T00:31:12.653Z,924.8
2016-12-09T00:31:40.530Z,924.79
2016-12-09T00:32:08.637Z,924.79
2016-12-09T00:32:36.448Z,924.77
2016-12-09T00:33:04.584Z,924.81
2016-12-09T00:33:32.748Z,924.76
2016-12-09T00:34:00.523Z,924.82
2016-12-09T00:34:28.737Z,924.86
2016-12-09T00:34:56.530Z,924.86
2016-12-09T00:35:24.443Z,924.87
2016-12-09T00:35:52.335Z,924.87
2016-12-09T00:36:20.157Z,924.92
2016-12-09T00:36:48.370Z,924.89
2016-12-09T00:37:16.215Z,924.93
2016-12-09T00:37:44.293Z,924.91
2016-12-09T00:38:12.221Z,924.92
2016-12-09T00:38:40.379Z,924.91
2016-12-09T00:39:08.497Z,924.95
2016-12-09T00:39:36.313Z,924.91
2016-12-09T00:40:04.097Z,924.93
2016-12-09T00:40:32.212Z,924.88
2016-12-09T00:41:00.364Z,924.88
2016-12-09T00:41:28.146Z,924.85
2016-12-09T00:41:56.099Z,924.85
2016-12-09T00:42:23.829Z,924.84
2016-12-09T00:42:51.866Z,924.84
2016-12-09T00:43:19.687Z,924.83
2016-12-09T00:43:47.765Z,924.82
2016-12-09T00:44:15.535Z,924.85
2016-12-09T00:44:43.350Z,924.8
2016-12-09T00:45:11.180Z,924.78
2016-12-09T00:45:39.050Z,924.78
2016-12-09T00:46:07.317Z,924.76
2016-12-09T00:46:35.221Z,924.77
2016-12-09T00:47:02.986Z,924.76
2016-12-09T00:47:30.782Z,924.76
2016-12-09T00:47:58.569Z,924.75
2016-12-09T00:48:26.375Z,924.74
2016-12-09T00:48:54.128Z,924.74
2016-12-09T00:49:21.978Z,924.75
2016-12-09T00:49:49.864Z,924.78
2016-12-09T00:50:17.682Z,924.73
2016-12-09T00:50:45.484Z,924.8
2016-12-09T00:51:13.304Z,924.78
2016-12-09T00:51:41.403Z,924.81
2016-12-09T00:52:09.528Z,924.81
2016-12-09T00:52:37.692Z,924.82
2016-12-09T00:53:05.506Z,924.77
2016-12-09T00:53:34.191Z,924.78
2016-12-09T00:54:02.189Z,924.81
2016-12-09T00:54:30.460Z,924.78
2016-12-09T00:54:58.319Z,924.81
2016-12-09T00:55:26.168Z,924.83
2016-12-09T00:55:54.274Z,924.79
2016-12-09T00:56:22.649Z,924.79
2016-12-09T00:56:50.535Z,924.79
2016-12-09T00:57:18.285Z,924.82
2016-12-09T00:57:46.085Z,924.79
2016-12-09T00:58:13.988Z,924.83
2016-12-09T00:58:42.087Z,924.84
2016-12-09T00:59:10.240Z,924.82
2016-12-09T00:59:38.132Z,924.84
2016-12-09T01:00:05.941Z,924.83
2016-12-09T01:00:34.064Z,924.87
2016-12-09T01:01:02.504Z,924.87
2016-12-09T01:01:30.623Z,924.85
2016-12-09T01:01:58.700Z,924.88
2016-12-09T01:02:26.512Z,924.85
2016-12-09T01:02:54.741Z,924.89
2016-12-09T01:03:22.566Z,924.92
2016-12-09T01:03:50.395Z,924.92
2016-12-09T01:04:18.227Z,924.92
2016-12-09T01:04:46.007Z,924.95
2016-12-09T01:05:13.856Z,924.95
2016-12-09T01:05:41.636Z,924.93
2016-12-09T01:06:09.957Z,924.96
2016-12-09T01:06:37.836Z,924.99
2016-12-09T01:07:05.960Z,924.97
2016-12-09T01:07:33.760Z,925
2016-12-09T01:08:01.964Z,925
2016-12-09T01:08:30.035Z,925.02
2016-12-09T01:08:58.247Z,925.02
2016-12-09T01:09:26.568Z,925.03
2016-12-09T01:09:54.408Z,925.02
2016-12-09T01:10:22.183Z,925.04
2016-12-09T01:10:50.273Z,925
2016-12-09T01:11:18.665Z,925.05
2016-12-09T01:11:46.506Z,925.02
2016-12-09T01:12:14.351Z,925.03
2016-12-09T01:12:42.533Z,925.04
2016-12-09T01:13:10.310Z,925.07
2016-12-09T01:13:38.112Z,925.05
2016-12-09T01:14:05.958Z,925.03
2016-12-09T01:14:33.807Z,925.02
2016-12-09T01:15:02.022Z,925.04
2016-12-09T01:15:29.850Z,925.02
2016-12-09T01:15:57.683Z,925.01
2016-12-09T01:16:25.937Z,925.06
2016-12-09T01:16:53.718Z,925.01
2016-12-09T01:17:21.927Z,924.99
2016-12-09T01:17:49.685Z,925.01
2016-12-09T01:18:17.530Z,925
2016-12-09T01:18:45.728Z,924.98
2016-12-09T01:19:14.123Z,924.97
2016-12-09T01:19:42.260Z,924.91
2016-12-09T01:20:10.129Z,924.88
2016-12-09T01:20:38.011Z,924.92
2016-12-09T01:21:06.225Z,924.87
2016-12-09T01:21:34.344Z,924.87
2016-12-09T01:22:02.184Z,924.89
2016-12-09T01:22:30.325Z,924.87
2016-12-09T01:22:58.276Z,924.83
2016-12-09T01:23:26.122Z,924.87
2016-12-09T01:23:54.207Z,924.86
2016-12-09T01:24:22.106Z,924.87
2016-12-09T01:24:49.926Z,924.88
2016-12-09T01:25:18.013Z,924.91
2016-12-09T01:25:46.152Z,924.85
2016-12-09T01:26:13.999Z,924.9
2016-12-09T01:26:41.968Z,924.88
2016-12-09T01:27:10.141Z,924.87
2016-12-09T01:27:38.284Z,924.86
2016-12-09T01:28:06.415Z,924.87
2016-12-09T01:28:34.276Z,924.85
2016-12-09T01:29:02.753Z,924.83
2016-12-09T01:29:30.868Z,924.85
2016-12-09T01:29:58.739Z,924.86
2016-12-09T01:30:26.569Z,924.81
2016-12-09T01:30:54.357Z,924.83
2016-12-09T01:31:22.510Z,924.81
2016-12-09T01:31:50.948Z,924.84
2016-12-09T01:32:19.013Z,924.84
2016-12-09T01:32:47.108Z,924.82
2016-12-09T01:33:15.266Z,924.79
2016-12-09T01:33:43.140Z,924.8
2016-12-09T01:34:11.051Z,924.8
2016-12-09T01:34:38.792Z,924.75
2016-12-09T01:35:06.961Z,924.77
2016-12-09T01:35:34.748Z,924.77
2016-12-09T01:36:02.561Z,924.77
2016-12-09T01:36:30.600Z,924.76
2016-12-09T01:36:58.719Z,924.73
2016-12-09T01:37:26.490Z,924.74
2016-12-09T01:37:54.297Z,924.73
2016-12-09T01:38:22.134Z,924.75
2016-12-09T01:38:50.305Z,924.75
2016-12-09T01:39:18.168Z,924.77
2016-12-09T01:39:46.036Z,924.72
2016-12-09T01:40:14.245Z,924.77
2016-12-09T01:40:42.374Z,924.73
2016-12-09T01:41:10.270Z,924.75
2016-12-09T01:41:38.164Z,924.77
2016-12-09T01:42:06.305Z,924.73
2016-12-09T01:42:34.167Z,924.79
2016-12-09T01:43:02.007Z,924.77
2016-12-09T01:43:29.845Z,924.76
2016-12-09T01:43:57.771Z,924.78
2016-12-09T01:44:25.572Z,924.74
2016-12-09T01:44:53.401Z,924.78
2016-12-09T01:45:21.557Z,924.79
2016-12-09T01:45:49.465Z,924.84
2016-12-09T01:46:17.333Z,924.8
2016-12-09T01:46:45.147Z,924.81
2016-12-09T01:47:12.877Z,924.84
2016-12-09T01:47:40.715Z,924.83
2016-12-09T01:48:08.532Z,924.83
2016-12-09T01:48:36.376Z,924.81
2016-12-09T01:49:04.198Z,924.88
2016-12-09T01:49:32.024Z,924.88
2016-12-09T01:49:59.929Z,924.91
2016-12-09T01:50:27.797Z,924.9
2016-12-09T01:50:55.586Z,924.93
2016-12-09T01:51:23.727Z,924.94
2016-12-09T01:51:51.701Z,924.95
2016-12-09T01:52:19.534Z,924.94
2016-12-09T01:52:47.659Z,924.94
2016-12-09T01:53:15.415Z,924.96
2016-12-09T01:53:43.250Z,924.93
2016-12-09T01:54:11.471Z,924.98
2016-12-09T01:54:39.447Z,924.99
2016-12-09T01:55:07.319Z,924.99
2016-12-09T01:55:35.175Z,924.96
2016-12-09T01:56:03.570Z,924.98
2016-12-09T01:56:31.318Z,924.96
2016-12-09T01:56:59.178Z,924.97
2016-12-09T01:57:26.978Z,924.88
2016-12-09T01:57:54.768Z,924.91
2016-12-09T01:58:22.575Z,924.87
2016-12-09T01:58:50.295Z,924.89
2016-12-09T01:59:18.793Z,924.9
2016-12-09T01:59:47.016Z,924.88
2016-12-09T02:00:14.813Z,924.87
2016-12-09T02:00:42.602Z,924.91
2016-12-09T02:01:10.667Z,924.87
2016-12-09T02:01:38.811Z,924.89
2016-12-09T02:02:06.636Z,924.82
2016-12-09T02:02:34.471Z,924.86
2016-12-09T02:03:02.334Z,924.85
2016-12-09T02:03:30.165Z,924.83
2016-12-09T02:03:58.075Z,924.83
2016-12-09T02:04:26.527Z,924.77
2016-12-09T02:04:54.701Z,924.8
2016-12-09T02:05:22.845Z,924.77
2016-12-09T02:05:50.969Z,924.71
2016-12-09T02:06:19.022Z,924.73
2016-12-09T02:06:46.837Z,924.68
2016-12-09T02:07:15.010Z,924.68
2016-12-09T02:07:42.880Z,924.75
2016-12-09T02:08:10.715Z,924.66
2016-12-09T02:08:38.886Z,924.69
2016-12-09T02:09:06.687Z,924.66
2016-12-09T02:09:34.526Z,924.68
2016-12-09T02:10:02.338Z,924.68
2016-12-09T02:10:30.128Z,924.69
2016-12-09T02:10:58.247Z,924.67
2016-12-09T02:11:26.775Z,924.71
2016-12-09T02:11:55.675Z,924.71
2016-12-09T02:12:23.921Z,924.68
2016-12-09T02:12:52.145Z,924.72
2016-12-09T02:13:19.957Z,924.72
2016-12-09T02:13:47.857Z,924.72
2016-12-09T02:14:15.986Z,924.69
2016-12-09T02:14:44.111Z,924.67
2016-12-09T02:15:12.595Z,924.68
2016-12-09T02:15:40.768Z,924.69
2016-12-09T02:16:08.594Z,924.7
2016-12-09T02:16:36.428Z,924.69
2016-12-09T02:17:04.212Z,924.67
2016-12-09T02:17:32.093Z,924.68
2016-12-09T02:17:59.931Z,924.7
2016-12-09T02:18:28.097Z,924.63
2016-12-09T02:18:56.292Z,924.63
2016-12-09T02:19:24.390Z,924.62
2016-12-09T02:19:52.210Z,924.68
2016-12-09T02:20:20.358Z,924.7
2016-12-09T02:20:48.150Z,924.71
2016-12-09T02:21:16.624Z,924.68
2016-12-09T02:21:44.430Z,924.67
2016-12-09T02:22:12.414Z,924.66
2016-12-09T02:22:40.936Z,924.67
2016-12-09T02:23:09.025Z,924.62
2016-12-09T02:23:36.833Z,924.64
2016-12-09T02:24:04.679Z,924.65
2016-12-09T02:24:32.848Z,924.63
2016-12-09T02:25:00.774Z,924.67
2016-12-09T02:25:28.630Z,924.67
2016-12-09T02:25:57.146Z,924.62
2016-12-09T02:26:24.999Z,924.62
2016-12-09T02:26:53.184Z,924.63
2016-12-09T02:27:21.145Z,924.63
2016-12-09T02:27:48.932Z,924.64
2016-12-09T02:28:16.903Z,924.62
2016-12-09T02:28:44.818Z,924.64
2016-12-09T02:29:12.747Z,924.61
2016-12-09T02:29:40.922Z,924.62
2016-12-09T02:30:09.095Z,924.6
2016-12-09T02:30:36.952Z,924.58
2016-12-09T02:31:05.093Z,924.61
2016-12-09T02:31:32.927Z,924.63
2016-12-09T02:32:01.380Z,924.65
2016-12-09T02:32:29.671Z,924.64
2016-12-09T02:32:57.397Z,924.67
2016-12-09T02:33:25.238Z,924.66
2016-12-09T02:33:53.056Z,924.65
2016-12-09T02:34:20.853Z,924.63
2016-12-09T02:34:49.285Z,924.63
2016-12-09T02:35:17.220Z,924.63
2016-12-09T02:35:44.966Z,924.65
2016-12-09T02:36:13.126Z,924.64
2016-12-09T02:36:41.306Z,924.63
2016-12-09T02:37:09.259Z,924.67
2016-12-09T02:37:38.333Z,924.69
2016-12-09T02:38:06.489Z,924.74
2016-12-09T02:38:34.315Z,924.73
2016-12-09T02:39:02.096Z,924.76
2016-12-09T02:39:29.993Z,924.8
2016-12-09T02:39:58.174Z,924.82
2016-12-09T02:40:26.032Z,924.81
2016-12-09T02:40:53.869Z,924.86
2016-12-09T02:41:21.701Z,924.9
2016-12-09T02:41:49.862Z,924.91
2016-12-09T02:42:18.315Z,924.91
2016-12-09T02:42:46.140Z,924.87
2016-12-09T02:43:14.272Z,924.93
2016-12-09T02:43:42.102Z,924.88
2016-12-09T02:44:10.031Z,924.91
2016-12-09T02:44:37.913Z,924.93
2016-12-09T02:45:05.997Z,924.89
2016-12-09T02:45:34.490Z,924.9
2016-12-09T02:46:02.317Z,924.89
2016-12-09T02:46:30.072Z,924.9
2016-12-09T02:46:57.911Z,924.87
2016-12-09T02:47:26.250Z,924.88
2016-12-09T02:47:54.370Z,924.85
2016-12-09T02:48:22.559Z,924.93
2016-12-09T02:48:50.354Z,924.89
2016-12-09T02:49:18.234Z,924.87
2016-12-09T02:49:46.388Z,924.85
2016-12-09T02:50:14.278Z,924.87
2016-12-09T02:50:43.008Z,924.91
2016-12-09T02:51:10.839Z,924.9
2016-12-09T02:51:38.718Z,924.87
2016-12-09T02:52:06.639Z,924.9
2016-12-09T02:52:34.795Z,924.86
2016-12-09T02:53:02.910Z,924.89
2016-12-09T02:53:31.339Z,924.88
2016-12-09T02:53:59.138Z,924.86
2016-12-09T02:54:26.915Z,924.8
2016-12-09T02:54:54.856Z,924.82
2016-12-09T02:55:22.669Z,924.82
2016-12-09T02:55:50.788Z,924.72
2016-12-09T02:56:18.576Z,924.74
2016-12-09T02:56:46.357Z,924.78
2016-12-09T02:57:14.179Z,924.78
2016-12-09T02:57:41.953Z,924.78
2016-12-09T02:58:09.780Z,924.76
2016-12-09T02:58:37.990Z,924.77
2016-12-09T02:59:05.800Z,924.81
2016-12-09T02:59:33.961Z,924.81
2016-12-09T03:00:01.871Z,924.8
2016-12-09T03:00:29.711Z,924.81
2016-12-09T03:00:57.505Z,924.77
2016-12-09T03:01:25.284Z,924.82
2016-12-09T03:01:53.146Z,924.77
2016-12-09T03:02:21.582Z,924.77
2016-12-09T03:02:49.650Z,924.78
2016-12-09T03:03:17.469Z,924.8
2016-12-09T03:03:45.537Z,924.8
2016-12-09T03:04:13.687Z,924.78
2016-12-09T03:04:41.500Z,924.8
2016-12-09T03:05:10.312Z,924.75
2016-12-09T03:05:38.160Z,924.82
2016-12-09T03:06:06.276Z,924.75
2016-12-09T03:06:34.144Z,924.8
2016-12-09T03:07:02.227Z,924.79
2016-12-09T03:07:30.303Z,924.8
2016-12-09T03:07:58.482Z,924.75
2016-12-09T03:08:26.348Z,924.79
2016-12-09T03:08:54.162Z,924.78
2016-12-09T03:09:21.872Z,924.76
2016-12-09T03:09:50.035Z,924.78
2016-12-09T03:10:17.961Z,924.79
2016-12-09T03:10:46.104Z,924.75
2016-12-09T03:11:13.903Z,924.76
2016-12-09T03:11:41.700Z,924.73
2016-12-09T03:12:09.574Z,924.75
2016-12-09T03:12:37.368Z,924.77
2016-12-09T03:13:05.978Z,924.7
2016-12-09T03:13:33.835Z,924.73
2016-12-09T03:14:01.727Z,924.71
2016-12-09T03:14:29.603Z,924.72
2016-12-09T03:14:57.709Z,924.64
2016-12-09T03:15:25.555Z,924.72
2016-12-09T03:15:53.428Z,924.67
2016-12-09T03:16:21.595Z,924.62
2016-12-09T03:16:49.441Z,924.64
2016-12-09T03:17:17.610Z,924.66
2016-12-09T03:17:45.590Z,924.65
2016-12-09T03:18:13.390Z,924.68
2016-12-09T03:18:41.833Z,924.68
2016-12-09T03:19:09.755Z,924.66
2016-12-09T03:19:38.122Z,924.64
2016-12-09T03:20:06.258Z,924.69
2016-12-09T03:20:34.405Z,924.63
2016-12-09T03:21:02.233Z,924.65
2016-12-09T03:21:30.148Z,924.64
2016-12-09T03:21:57.945Z,924.66
2016-12-09T03:22:25.717Z,924.62
2016-12-09T03:22:53.585Z,924.61
2016-12-09T03:23:21.487Z,924.6
2016-12-09T03:23:49.255Z,924.59
2016-12-09T03:24:17.041Z,924.62
2016-12-09T03:24:45.181Z,924.64
2016-12-09T03:25:13.240Z,924.59
2016-12-09T03:25:41.346Z,924.6
2016-12-09T03:26:09.602Z,924.63
2016-12-09T03:26:37.462Z,924.61
2016-12-09T03:27:05.859Z,924.6
2016-12-09T03:27:34.066Z,924.61
2016-12-09T03:28:02.176Z,924.61
2016-12-09T03:28:30.313Z,924.59
2016-12-09T03:28:58.183Z,924.62
2016-12-09T03:29:26.335Z,924.6
2016-12-09T03:29:54.776Z,924.59
2016-12-09T03:30:23.193Z,924.58
2016-12-09T03:30:51.075Z,924.58
2016-12-09T03:31:19.225Z,924.59
2016-12-09T03:31:47.448Z,924.55
2016-12-09T03:32:15.886Z,924.57
2016-12-09T03:32:43.791Z,924.54
2016-12-09T03:33:12.017Z,924.56
2016-12-09T03:33:39.761Z,924.5
2016-12-09T03:34:07.607Z,924.54
2016-12-09T03:34:35.758Z,924.53
2016-12-09T03:35:03.603Z,924.52
2016-12-09T03:35:31.749Z,924.52
2016-12-09T03:35:59.529Z,924.46
2016-12-09T03:36:27.350Z,924.46
2016-12-09T03:36:55.719Z,924.43
2016-12-09T03:37:23.525Z,924.44
2016-12-09T03:37:51.839Z,924.42
2016-12-09T03:38:19.983Z,924.45
2016-12-09T03:38:47.892Z,924.42
2016-12-09T03:39:16.084Z,924.43
2016-12-09T03:39:43.990Z,924.46
2016-12-09T03:40:11.745Z,924.45
2016-12-09T03:40:39.905Z,924.49
2016-12-09T03:41:07.733Z,924.49
2016-12-09T03:41:35.645Z,924.5
2016-12-09T03:42:04.090Z,924.47
2016-12-09T03:42:32.155Z,924.44
2016-12-09T03:43:00.644Z,924.46
2016-12-09T03:43:28.469Z,924.46
2016-12-09T03:43:56.256Z,924.43
2016-12-09T03:44:24.027Z,924.43
2016-12-09T03:44:51.781Z,924.4
2016-12-09T03:45:19.643Z,924.38
2016-12-09T03:45:47.786Z,924.38
2016-12-09T03:46:15.613Z,924.39
2016-12-09T03:46:43.752Z,924.35
2016-12-09T03:47:12.327Z,924.37
2016-12-09T03:47:40.627Z,924.34
2016-12-09T03:48:08.447Z,924.34
2016-12-09T03:48:36.585Z,924.37
2016-12-09T03:49:04.338Z,924.37
2016-12-09T03:49:33.349Z,924.34
2016-12-09T03:50:02.053Z,924.35
2016-12-09T03:50:29.806Z,924.36
2016-12-09T03:50:57.911Z,924.3
2016-12-09T03:51:26.026Z,924.36
2016-12-09T03:51:53.809Z,924.3
2016-12-09T03:52:21.641Z,924.34
2016-12-09T03:52:49.844Z,924.3
2016-12-09T03:53:17.940Z,924.31
2016-12-09T03:53:45.715Z,924.31
2016-12-09T03:54:13.458Z,924.31
2016-12-09T03:54:41.527Z,924.32
2016-12-09T03:55:09.641Z,924.32
2016-12-09T03:55:38.027Z,924.33
2016-12-09T03:56:06.148Z,924.28
2016-12-09T03:56:34.238Z,924.28
2016-12-09T03:57:01.935Z,924.26
2016-12-09T03:57:29.730Z,924.28
2016-12-09T03:57:57.794Z,924.29
2016-12-09T03:58:25.457Z,924.24
2016-12-09T03:58:53.160Z,924.22
2016-12-09T03:59:21.796Z,924.31
2016-12-09T03:59:49.933Z,924.25
2016-12-09T04:00:18.045Z,924.25
2016-12-09T04:00:46.146Z,924.26
2016-12-09T04:01:14.910Z,924.3
2016-12-09T04:01:42.655Z,924.24
2016-12-09T04:02:10.355Z,924.22
2016-12-09T04:02:38.027Z,924.26
2016-12-09T04:03:06.299Z,924.18
2016-12-09T04:03:34.426Z,924.19
2016-12-09T04:04:02.164Z,924.16
2016-12-09T04:04:29.919Z,924.18
2016-12-09T04:04:57.664Z,924.17
2016-12-09T04:05:25.417Z,924.16
2016-12-09T04:05:53.192Z,924.15
2016-12-09T04:06:21.584Z,924.17
2016-12-09T04:06:49.666Z,924.14
2016-12-09T04:07:18.723Z,924.11
2016-12-09T04:07:46.495Z,924.12
2016-12-09T04:08:14.638Z,924.08
2016-12-09T04:08:43.067Z,924.1
2016-12-09T04:09:11.500Z,924.13
2016-12-09T04:09:40.267Z,924.12
2016-12-09T04:10:08.437Z,924.16
2016-12-09T04:10:36.229Z,924.1
2016-12-09T04:11:04.720Z,924.14
2016-12-09T04:11:33.520Z,924.13
2016-12-09T04:12:01.318Z,924.14
2016-12-09T04:12:30.152Z,924.17
2016-12-09T04:12:57.949Z,924.17
2016-12-09T04:13:25.749Z,924.13
2016-12-09T04:13:54.618Z,924.12
2016-12-09T04:14:22.385Z,924.15
2016-12-09T04:14:50.527Z,924.12
2016-12-09T04:15:19.171Z,924.12
2016-12-09T04:15:46.935Z,924.13
2016-12-09T04:16:15.300Z,924.11
2016-12-09T04:16:43.675Z,924.12
2016-12-09T04:17:12.643Z,924.12
2016-12-09T04:17:40.391Z,924.08
2016-12-09T04:18:08.575Z,924.08
2016-12-09T04:18:36.361Z,924.12
2016-12-09T04:19:04.431Z,924.06
2016-12-09T04:19:32.556Z,924.1
2016-12-09T04:20:00.354Z,924.11
2016-12-09T04:20:28.157Z,924.05
2016-12-09T04:20:56.224Z,924.04
2016-12-09T04:21:24.031Z,924.05
2016-12-09T04:21:52.114Z,924.06
2016-12-09T04:22:19.885Z,924.08
2016-12-09T04:22:48.337Z,924.08
2016-12-09T04:23:17.244Z,924.01
2016-12-09T04:23:45.400Z,924.04
2016-12-09T04:24:13.221Z,924.08
2016-12-09T04:24:41.335Z,924.04
2016-12-09T04:25:09.437Z,924.04
2016-12-09T04:25:38.145Z,924.04
2016-12-09T04:26:06.280Z,924.06
2016-12-09T04:26:34.370Z,924.09
2016-12-09T04:27:02.461Z,924.03
2016-12-09T04:27:30.819Z,924.04
2016-12-09T04:27:58.647Z,924.06
2016-12-09T04:28:26.542Z,924.03
2016-12-09T04:28:54.668Z,924.04
2016-12-09T04:29:22.729Z,924.08
2016-12-09T04:29:50.847Z,924.06
2016-12-09T04:30:19.560Z,924.03
2016-12-09T04:30:47.677Z,924.06
2016-12-09T04:31:15.452Z,924.05
2016-12-09T04:31:43.885Z,924.06
2016-12-09T04:32:12.018Z,924.07
2016-12-09T04:32:40.441Z,924.09
2016-12-09T04:33:08.867Z,924.11
2016-12-09T04:33:37.789Z,924.07
2016-12-09T04:34:05.914Z,924.08
2016-12-09T04:34:33.932Z,924.02
2016-12-09T04:35:01.985Z,924.04
2016-12-09T04:35:30.121Z,924.01
2016-12-09T04:35:59.135Z,924.06
2016-12-09T04:36:27.247Z,924.03
2016-12-09T04:36:55.015Z,924.04
2016-12-09T04:37:23.139Z,923.99
2016-12-09T04:37:50.865Z,923.98
2016-12-09T04:38:18.720Z,923.99
2016-12-09T04:38:47.373Z,924
2016-12-09T04:39:15.959Z,923.99
2016-12-09T04:39:43.729Z,924.01
2016-12-09T04:40:11.801Z,923.99
2016-12-09T04:40:39.889Z,923.95
2016-12-09T04:41:07.958Z,923.96
2016-12-09T04:41:36.657Z,923.96
2016-12-09T04:42:04.420Z,923.91
2016-12-09T04:42:32.148Z,923.91
2016-12-09T04:43:00.243Z,923.88
2016-12-09T04:43:28.330Z,923.91
2016-12-09T04:43:56.235Z,923.92
2016-12-09T04:44:24.335Z,923.87
2016-12-09T04:44:52.407Z,923.89
2016-12-09T04:45:20.165Z,923.91
2016-12-09T04:45:47.993Z,923.9
2016-12-09T04:46:15.771Z,923.89
2016-12-09T04:46:44.185Z,923.9
2016-12-09T04:47:12.861Z,923.89
2016-12-09T04:47:40.620Z,923.89
2016-12-09T04:48:08.651Z,923.87
2016-12-09T04:48:36.419Z,923.89
2016-12-09T04:49:04.255Z,923.88
2016-12-09T04:49:32.635Z,923.9
2016-12-09T04:50:01.031Z,923.91
2016-12-09T04:50:28.775Z,923.91
2016-12-09T04:50:57.226Z,923.93
2016-12-09T04:51:25.266Z,923.9
2016-12-09T04:51:53.121Z,923.92
2016-12-09T04:52:22.058Z,923.93
2016-12-09T04:52:50.175Z,923.91
2016-12-09T04:53:18.250Z,923.91
2016-12-09T04:53:46.023Z,923.95
2016-12-09T04:54:14.504Z,923.97
2016-12-09T04:54:42.598Z,923.93
2016-12-09T04:55:10.399Z,923.93
2016-12-09T04:55:38.211Z,923.96
2016-12-09T04:56:06.618Z,923.91
2016-12-09T04:56:34.968Z,923.9
2016-12-09T04:57:03.047Z,923.94
2016-12-09T04:57:31.832Z,923.9
2016-12-09T04:58:00.010Z,923.92
2016-12-09T04:58:27.743Z,923.87
2016-12-09T04:58:56.053Z,923.92
2016-12-09T04:59:24.775Z,923.88
2016-12-09T04:59:53.177Z,923.89
2016-12-09T05:00:21.613Z,923.84
2016-12-09T05:00:49.840Z,923.87
2016-12-09T05:01:17.681Z,923.88
2016-12-09T05:01:46.164Z,923.89
2016-12-09T05:02:14.563Z,923.82
2016-12-09T05:02:42.998Z,923.82
2016-12-09T05:03:10.785Z,923.87
2016-12-09T05:03:38.623Z,923.85
2016-12-09T05:04:06.525Z,923.82
2016-12-09T05:04:34.328Z,923.84
2016-12-09T05:05:02.163Z,923.85
2016-12-09T05:05:31.197Z,923.81
2016-12-09T05:05:59.666Z,923.82
2016-12-09T05:06:27.822Z,923.8
2016-12-09T05:06:55.896Z,923.83
2016-12-09T05:07:23.674Z,923.8
2016-12-09T05:07:51.841Z,923.81
2016-12-09T05:08:20.277Z,923.82
2016-12-09T05:08:48.775Z,923.83
2016-12-09T05:09:17.507Z,923.85
2016-12-09T05:09:45.647Z,923.83
2016-12-09T05:10:13.443Z,923.8
2016-12-09T05:10:41.655Z,923.86
2016-12-09T05:11:09.449Z,923.89
2016-12-09T05:11:37.564Z,923.82
2016-12-09T05:12:05.337Z,923.77
2016-12-09T05:12:34.058Z,923.8
2016-12-09T05:13:02.511Z,923.8
2016-12-09T05:13:30.654Z,923.79
2016-12-09T05:13:59.236Z,923.77
2016-12-09T05:14:27.734Z,923.79
2016-12-09T05:14:56.075Z,923.75
2016-12-09T05:15:24.481Z,923.75
2016-12-09T05:15:52.612Z,923.8
2016-12-09T05:16:20.661Z,923.69
2016-12-09T05:16:48.438Z,923.73
2016-12-09T05:17:16.492Z,923.68
2016-12-09T05:17:44.621Z,923.67
2016-12-09T05:18:13.198Z,923.67
2016-12-09T05:18:40.903Z,923.68
2016-12-09T05:19:09.974Z,923.64
2016-12-09T05:19:38.117Z,923.66
2016-12-09T05:20:06.811Z,923.65
2016-12-09T05:20:34.904Z,923.63
2016-12-09T05:21:02.990Z,923.65
2016-12-09T05:21:31.082Z,923.67
2016-12-09T05:21:58.882Z,923.66
2016-12-09T05:22:27.045Z,923.63
2016-12-09T05:22:55.849Z,923.65
2016-12-09T05:23:23.958Z,923.67
2016-12-09T05:23:52.066Z,923.68
2016-12-09T05:24:20.475Z,923.65
2016-12-09T05:24:48.868Z,923.65
2016-12-09T05:25:16.633Z,923.66
2016-12-09T05:25:45.049Z,923.63
2016-12-09T05:26:12.840Z,923.6
2016-12-09T05:26:40.495Z,923.63
2016-12-09T05:27:08.257Z,923.6
2016-12-09T05:27:36.009Z,923.61
2016-12-09T05:28:04.049Z,923.57
2016-12-09T05:28:32.056Z,923.56
2016-12-09T05:29:00.473Z,923.55
2016-12-09T05:29:28.496Z,923.55
2016-12-09T05:29:56.602Z,923.58
2016-12-09T05:30:37.668Z,923.57
2016-12-09T05:31:05.789Z,923.56
2016-12-09T05:31:33.581Z,923.54
2016-12-09T05:32:02.073Z,923.53
2016-12-09T05:32:30.262Z,923.54
2016-12-09T05:32:58.324Z,923.54
2016-12-09T05:33:26.823Z,923.56
2016-12-09T05:33:54.635Z,923.57
2016-12-09T05:34:22.597Z,923.56
2016-12-09T05:34:50.645Z,923.54
2016-12-09T05:35:18.712Z,923.56
2016-12-09T05:35:46.448Z,923.54
2016-12-09T05:36:14.147Z,923.54
2016-12-09T05:36:42.492Z,923.55
2016-12-09T05:37:10.548Z,923.55
2016-12-09T05:37:38.892Z,923.52
2016-12-09T05:38:06.974Z,923.52
2016-12-09T05:38:35.731Z,923.52
2016-12-09T05:39:03.836Z,923.58
2016-12-09T05:39:32.088Z,923.55
2016-12-09T05:39:59.863Z,923.58
2016-12-09T05:40:28.210Z,923.59
2016-12-09T05:40:55.941Z,923.59
2016-12-09T05:41:24.005Z,923.61
2016-12-09T05:41:52.405Z,923.58
2016-12-09T05:42:20.220Z,923.59
2016-12-09T05:42:48.966Z,923.57
2016-12-09T05:43:17.410Z,923.59
2016-12-09T05:43:45.258Z,923.57
2016-12-09T05:44:13.605Z,923.6
2016-12-09T05:44:41.715Z,923.57
2016-12-09T05:45:10.209Z,923.54
2016-12-09T05:45:38.601Z,923.62
2016-12-09T05:46:07.597Z,923.58
2016-12-09T05:46:35.411Z,923.57
2016-12-09T05:47:03.253Z,923.56
2016-12-09T05:47:31.316Z,923.56
2016-12-09T05:48:00.069Z,923.59
2016-12-09T05:48:28.398Z,923.58
2016-12-09T05:48:56.523Z,923.59
2016-12-09T05:49:24.907Z,923.55
2016-12-09T05:49:52.700Z,923.56
2016-12-09T05:50:20.840Z,923.58
2016-12-09T05:50:49.285Z,923.55
2016-12-09T05:51:17.546Z,923.51